1887 NOT_NAMED (1887329N09128)


IBTrACS version v04r00. Visit IBTrACS website for data access.
Please direct all questions to the IBTrACS Q and A forum

Storm track - Intensity - Wind Radii - Intensity Data - Source Data - All data

Summary Information

Storm ID 1887329N09128
Start Nov 24 16Z
Landfall Nov 25 12Z, Nov 26 00Z
End Nov 29 04Z
ATCF IDs
Track status Best track data.

Storm track plot

Map of storm track

Intensity plots

No Intensity information for this storm


Radial wind information

No radial wind information for this storm


Position and Intensity Table

BASIN ISO_TIME_________ NATURE LAT LON
degrees north degrees east
WP 1887-11-24 16:00:00 NR 8.60 127.60
WP 18:00:00 NR 8.60 127.60
WP 21:00:00 NR 8.61 127.58
WP 1887-11-25 00:00:00 NR 8.65 127.49
WP 03:00:00 NR 8.75 127.30
WP 04:00:00 NR 8.80 127.20
WP 06:00:00 NR 8.93 126.96
WP 09:00:00 NR 9.17 126.48
WP 12:00:00 NR 9.47 125.92
WP 15:00:00 NR 9.79 125.31
WP 16:00:00 NR 9.90 125.10
WP 18:00:00 NR 10.13 124.70
WP 21:00:00 NR 10.48 124.08
WP 1887-11-26 00:00:00 NR 10.82 123.47
WP 03:00:00 NR 11.12 122.88
WP 04:00:00 NR 11.20 122.70
WP 06:00:00 NR 11.32 122.37
WP 09:00:00 NR 11.44 121.91
WP 12:00:00 NR 11.54 121.48
WP 15:00:00 NR 11.65 121.05
WP 16:00:00 NR 11.70 120.90
WP 18:00:00 NR 11.84 120.55
WP 21:00:00 NR 12.08 120.02
WP 1887-11-27 00:00:00 NR 12.34 119.51
WP 03:00:00 NR 12.61 119.04
WP 04:00:00 NR 12.70 118.90
WP 06:00:00 NR 12.86 118.66
WP 09:00:00 NR 13.10 118.36
WP 12:00:00 NR 13.34 118.11
WP 15:00:00 NR 13.61 117.88
WP 16:00:00 NR 13.70 117.80
WP 18:00:00 NR 13.90 117.62
WP 21:00:00 NR 14.21 117.35
WP 1887-11-28 00:00:00 NR 14.54 117.10
WP 03:00:00 NR 14.88 116.87
WP 04:00:00 NR 15.00 116.80
WP 06:00:00 NR 15.22 116.68
WP 09:00:00 NR 15.56 116.52
WP 12:00:00 NR 15.91 116.38
WP 15:00:00 NR 16.28 116.24
WP 16:00:00 NR 16.40 116.20
WP 18:00:00 NR 16.65 116.11
WP 21:00:00 NR 17.05 115.96
WP 1887-11-29 00:00:00 NR 17.45 115.81
WP 03:00:00 NR 17.86 115.65
WP 04:00:00 NR 18.00 115.60

Source Information

Agency Information
USA
TOKYO
CMA
HKO
NEWDELHI
REUNION
BOM
NADI
WELLINGTON
DS824
TD9636 cons_worldwide_trop_cyclone_18710101-19891231-003:Line=521
TD9635
NEUMANN
MLC

All available IBTrACS Data

SEASON BASIN SUBBASIN ISO_TIME_________ NATURE LAT LON DIST2LAND LANDFALL IFLAG USA SSHS TD9636 LAT TD9636 LON TD9636 STAGE STORM SPEED STORM DIR
Year degrees north degrees east km km 1 degrees north degrees east kts degrees
1887 WP MM 1887-11-24 16:00:00 NR 8.60 127.60 136 136 __________O___ -1 8.60 127.60 3 0 0
1887 WP MM 18:00:00 NR 8.60 127.60 136 136 __________P___ -1 8.60 127.60 3 0 0
1887 WP MM 21:00:00 NR 8.61 127.58 136 125 __________P___ -1 8.61 127.58 3 1 295
1887 WP MM 1887-11-25 00:00:00 NR 8.65 127.49 125 108 __________P___ -1 8.65 127.49 3 3 297
1887 WP MM 03:00:00 NR 8.75 127.30 109 98 __________P___ -1 8.75 127.30 3 5 297
1887 WP MM 04:00:00 NR 8.80 127.20 98 77 __________O___ -1 8.80 127.20 7 8 298
1887 WP MM 06:00:00 NR 8.93 126.96 77 32 __________P___ -1 8.93 126.96 7 10 298
1887 WP MM 09:00:00 NR 9.17 126.48 32 0 __________P___ -1 9.17 126.48 7 12 298
1887 WP MM 12:00:00 NR 9.47 125.92 0 0 __________P___ -1 9.47 125.92 7 13 298
1887 WP MM 15:00:00 NR 9.79 125.31 15 15 __________P___ -1 9.79 125.31 7 14 298
1887 WP MM 16:00:00 NR 9.90 125.10 15 0 __________O___ -1 9.90 125.10 7 14 299
1887 WP MM 18:00:00 NR 10.13 124.70 15 10 __________P___ -1 10.13 124.70 7 14 300
1887 WP MM 21:00:00 NR 10.48 124.08 10 0 __________P___ -1 10.48 124.08 7 14 300
1887 WP MM 1887-11-26 00:00:00 NR 10.82 123.47 0 0 __________P___ -1 10.82 123.47 7 13 298
1887 WP MM 03:00:00 NR 11.12 122.88 0 0 __________P___ -1 11.12 122.88 7 13 297
1887 WP MM 04:00:00 NR 11.20 122.70 0 0 __________O___ -1 11.20 122.70 7 11 292
1887 WP MM 06:00:00 NR 11.32 122.37 0 0 __________P___ -1 11.32 122.37 7 10 287
1887 WP MM 09:00:00 NR 11.44 121.91 21 21 __________P___ -1 11.44 121.91 7 9 284
1887 WP MM 12:00:00 NR 11.54 121.48 46 46 __________P___ -1 11.54 121.48 7 9 284
1887 WP MM 15:00:00 NR 11.65 121.05 57 57 __________P___ -1 11.65 121.05 7 9 286
1887 WP MM 16:00:00 NR 11.70 120.90 60 55 __________O___ -1 11.70 120.90 4 10 291
1887 WP MM 18:00:00 NR 11.84 120.55 70 73 __________P___ -1 11.84 120.55 4 11 294
1887 WP MM 21:00:00 NR 12.08 120.02 99 95 __________P___ -1 12.08 120.02 4 11 296
1887 WP MM 1887-11-27 00:00:00 NR 12.34 119.51 111 123 __________P___ -1 12.34 119.51 4 11 299
1887 WP MM 03:00:00 NR 12.61 119.04 155 155 __________P___ -1 12.61 119.04 4 10 301
1887 WP MM 04:00:00 NR 12.70 118.90 169 169 __________O___ -1 12.70 118.90 4 9 304
1887 WP MM 06:00:00 NR 12.86 118.66 182 192 __________P___ -1 12.86 118.66 4 8 307
1887 WP MM 09:00:00 NR 13.10 118.36 208 217 __________P___ -1 13.10 118.36 4 7 312
1887 WP MM 12:00:00 NR 13.34 118.11 238 238 __________P___ -1 13.34 118.11 4 7 317
1887 WP MM 15:00:00 NR 13.61 117.88 260 260 __________P___ -1 13.61 117.88 4 7 320
1887 WP MM 16:00:00 NR 13.70 117.80 272 272 __________O___ -1 13.70 117.80 4 8 319
1887 WP MM 18:00:00 NR 13.90 117.62 287 283 __________P___ -1 13.90 117.62 4 8 319
1887 WP MM 21:00:00 NR 14.21 117.35 308 305 __________P___ -1 14.21 117.35 4 8 322
1887 WP MM 1887-11-28 00:00:00 NR 14.54 117.10 317 313 __________P___ -1 14.54 117.10 4 8 325
1887 WP MM 03:00:00 NR 14.88 116.87 324 324 __________P___ -1 14.88 116.87 4 8 328
1887 WP MM 04:00:00 NR 15.00 116.80 330 326 __________O___ -1 15.00 116.80 4 8 331
1887 WP MM 06:00:00 NR 15.22 116.68 333 330 __________P___ -1 15.22 116.68 4 8 334
1887 WP MM 09:00:00 NR 15.56 116.52 345 344 __________P___ -1 15.56 116.52 4 8 337
1887 WP MM 12:00:00 NR 15.91 116.38 353 352 __________P___ -1 15.91 116.38 4 8 340
1887 WP MM 15:00:00 NR 16.28 116.24 375 375 __________P___ -1 16.28 116.24 4 8 341
1887 WP MM 16:00:00 NR 16.40 116.20 376 376 __________O___ -1 16.40 116.20 4 8 341
1887 WP MM 18:00:00 NR 16.65 116.11 392 392 __________P___ -1 16.65 116.11 4 8 340
1887 WP MM 21:00:00 NR 17.05 115.96 410 413 __________P___ -1 17.05 115.96 4 9 340
1887 WP MM 1887-11-29 00:00:00 NR 17.45 115.81 446 446 __________P___ -1 17.45 115.81 4 9 340
1887 WP MM 03:00:00 NR 17.86 115.65 471 481 __________P___ -1 17.86 115.65 4 9 340
1887 WP MM 04:00:00 NR 18.00 115.60 485 __________O___ -1 18.00 115.60 7 9 338